createdAt,value
2022-09-28T03:46:33.604Z,9.60
2022-09-28T03:49:01.420Z,9.60
2022-09-28T03:51:28.119Z,9.70
2022-09-28T03:53:54.867Z,9.70
2022-09-28T03:56:21.573Z,9.70
2022-09-28T03:58:48.426Z,9.70
2022-09-28T04:01:18.723Z,9.60
2022-09-28T04:03:46.262Z,9.70
2022-09-28T04:06:13.864Z,9.80
2022-09-28T04:08:40.658Z,9.90
2022-09-28T04:11:10.514Z,10.00
2022-09-28T04:13:37.307Z,10.00
2022-09-28T04:16:05.051Z,10.00
2022-09-28T04:18:33.308Z,10.10
2022-09-28T04:21:03.418Z,10.10
2022-09-28T04:23:30.501Z,10.00
2022-09-28T04:25:57.420Z,10.00
2022-09-28T04:28:43.030Z,10.00
2022-09-28T04:31:13.413Z,10.00
2022-09-28T04:33:40.182Z,10.10
2022-09-28T04:36:07.369Z,10.20
2022-09-28T04:38:51.744Z,10.20
2022-09-28T04:41:19.955Z,10.20
2022-09-28T04:43:47.493Z,10.20
2022-09-28T04:46:14.906Z,10.20
2022-09-28T04:48:42.005Z,10.30
2022-09-28T04:51:08.785Z,10.30
2022-09-28T04:53:35.593Z,10.30
2022-09-28T04:56:05.039Z,10.20
2022-09-28T04:58:32.446Z,10.30
2022-09-28T05:01:05.924Z,10.40
2022-09-28T05:03:33.439Z,10.30
2022-09-28T05:06:00.187Z,10.20
2022-09-28T05:08:27.534Z,10.20
2022-09-28T05:10:59.639Z,10.10
2022-09-28T05:13:27.388Z,10.10
2022-09-28T05:15:58.189Z,10.00
2022-09-28T05:18:27.542Z,10.00
2022-09-28T05:20:54.206Z,10.00
2022-09-28T05:23:20.938Z,10.00
2022-09-28T05:25:47.696Z,10.10
2022-09-28T05:28:14.353Z,10.10
2022-09-28T05:30:41.053Z,10.10
2022-09-28T05:33:08.926Z,10.10
2022-09-28T05:35:36.549Z,10.10
2022-09-28T05:38:05.462Z,10.10
2022-09-28T05:40:32.566Z,10.10
2022-09-28T05:43:01.322Z,10.10
2022-09-28T05:45:29.446Z,10.10
2022-09-28T05:47:56.637Z,10.10
2022-09-28T05:50:23.888Z,10.10
2022-09-28T05:53:01.450Z,10.20
2022-09-28T05:55:28.581Z,10.30
2022-09-28T05:57:59.375Z,10.30
2022-09-28T06:00:27.749Z,10.40
2022-09-28T06:03:06.711Z,10.40
2022-09-28T06:05:36.231Z,10.50
2022-09-28T06:08:05.070Z,10.50
2022-09-28T06:10:32.828Z,10.50
2022-09-28T06:12:59.785Z,10.50
2022-09-28T06:15:29.472Z,10.60
2022-09-28T06:18:07.622Z,10.50
2022-09-28T06:20:36.889Z,10.50
2022-09-28T06:23:04.190Z,10.50
2022-09-28T06:25:30.849Z,10.50
2022-09-28T06:28:03.149Z,10.60
2022-09-28T06:30:33.039Z,10.60
2022-09-28T06:33:01.774Z,10.50
2022-09-28T06:35:33.080Z,10.50
2022-09-28T06:38:00.545Z,10.50
2022-09-28T06:40:28.468Z,10.50
2022-09-28T06:43:10.399Z,10.60
2022-09-28T06:45:38.286Z,10.60
2022-09-28T06:48:06.249Z,10.60
2022-09-28T06:50:41.866Z,10.60
2022-09-28T06:53:11.842Z,10.50
2022-09-28T06:55:48.252Z,10.50
2022-09-28T06:58:17.458Z,10.50
2022-09-28T07:00:44.239Z,10.60
2022-09-28T07:03:13.512Z,10.70
2022-09-28T07:05:44.993Z,10.70
2022-09-28T07:08:12.206Z,10.70
2022-09-28T07:10:44.030Z,10.60
2022-09-28T07:13:34.946Z,10.60
2022-09-28T07:16:01.879Z,10.60
2022-09-28T07:18:29.899Z,10.50
2022-09-28T07:20:57.487Z,10.60
2022-09-28T07:23:26.218Z,10.50
2022-09-28T07:25:53.416Z,10.50
2022-09-28T07:28:21.093Z,10.50
2022-09-28T07:30:48.205Z,10.50
2022-09-28T07:33:15.994Z,10.50
2022-09-28T07:35:50.755Z,10.50
2022-09-28T07:38:17.497Z,10.60
2022-09-28T07:41:02.978Z,10.60
2022-09-28T07:43:29.667Z,10.60
2022-09-28T07:45:56.896Z,10.70
2022-09-28T07:48:23.861Z,10.70
2022-09-28T07:50:52.176Z,10.70
2022-09-28T07:53:20.182Z,10.70
2022-09-28T07:55:53.989Z,10.70
2022-09-28T07:58:20.944Z,10.80
2022-09-28T08:00:49.055Z,10.80
2022-09-28T08:03:17.339Z,11.00
2022-09-28T08:05:44.396Z,11.00
2022-09-28T08:08:11.110Z,11.00
2022-09-28T08:10:37.887Z,11.00
2022-09-28T08:13:06.487Z,11.10
2022-09-28T08:15:36.924Z,11.10
2022-09-28T08:18:04.405Z,11.10
2022-09-28T08:20:51.619Z,11.20
2022-09-28T08:23:18.749Z,11.20
2022-09-28T08:25:49.561Z,11.20
2022-09-28T08:28:17.597Z,11.20
2022-09-28T08:30:45.665Z,11.20
2022-09-28T08:33:17.891Z,11.30
2022-09-28T08:35:46.744Z,11.30
2022-09-28T08:38:13.934Z,11.10
2022-09-28T08:41:16.039Z,11.00
2022-09-28T08:44:06.158Z,10.90
2022-09-28T08:46:38.699Z,10.70
2022-09-28T08:49:32.479Z,10.60
2022-09-28T08:52:13.504Z,10.70
2022-09-28T08:54:58.780Z,10.60
2022-09-28T08:57:55.939Z,10.60
2022-09-28T09:00:49.092Z,10.60
2022-09-28T09:03:31.954Z,10.60
2022-09-28T09:06:09.991Z,10.60
2022-09-28T09:09:07.947Z,10.60
2022-09-28T09:11:50.070Z,10.70
2022-09-28T09:14:27.717Z,10.70
2022-09-28T09:17:06.855Z,10.70
2022-09-28T09:19:58.961Z,10.60
2022-09-28T09:22:39.258Z,10.60
2022-09-28T09:25:29.938Z,10.60
2022-09-28T09:28:23.072Z,10.50
2022-09-28T09:31:27.343Z,10.40
2022-09-28T09:34:39.058Z,10.60
2022-09-28T09:37:34.561Z,10.70
2022-09-28T09:40:20.013Z,10.80
2022-09-28T09:43:08.307Z,10.90
2022-09-28T09:45:46.803Z,11.00
2022-09-28T09:48:44.334Z,11.10
2022-09-28T09:51:18.649Z,11.10
2022-09-28T09:53:51.850Z,11.10
2022-09-28T09:56:31.481Z,11.10
2022-09-28T09:59:33.936Z,11.20
2022-09-28T10:02:21.192Z,11.30
2022-09-28T10:04:49.490Z,11.40
2022-09-28T10:07:24.657Z,11.40
2022-09-28T10:09:55.683Z,11.50
2022-09-28T10:12:23.511Z,11.50
2022-09-28T10:14:50.594Z,11.60
2022-09-28T10:17:19.997Z,11.60
2022-09-28T10:19:46.728Z,11.70
2022-09-28T10:22:19.638Z,11.70
2022-09-28T10:24:49.899Z,11.70
2022-09-28T10:27:33.644Z,11.50
2022-09-28T10:30:13.092Z,11.60
2022-09-28T10:32:44.768Z,11.50
2022-09-28T10:35:40.954Z,11.60
2022-09-28T10:38:19.997Z,11.60
2022-09-28T10:40:51.681Z,11.50
2022-09-28T10:44:05.938Z,11.50
2022-09-28T10:46:38.359Z,11.70
2022-09-28T10:49:13.402Z,11.80
2022-09-28T10:51:49.690Z,11.80
2022-09-28T10:54:22.007Z,11.80
2022-09-28T10:56:50.498Z,11.80
2022-09-28T10:59:30.356Z,11.90
2022-09-28T11:02:00.167Z,11.70
2022-09-28T11:04:29.575Z,11.70
2022-09-28T11:09:41.415Z,11.40
2022-09-28T11:12:15.679Z,11.50
2022-09-28T11:14:43.762Z,11.60
2022-09-28T11:17:29.662Z,11.70
2022-09-28T11:19:59.166Z,11.70
2022-09-28T11:22:36.364Z,11.70
2022-09-28T11:25:18.034Z,11.60
2022-09-28T11:27:53.619Z,11.50
2022-09-28T11:30:26.164Z,11.50
2022-09-28T11:32:56.374Z,11.40
2022-09-28T11:35:29.990Z,11.30
2022-09-28T11:38:22.433Z,11.40
2022-09-28T11:41:04.114Z,11.30
2022-09-28T11:44:07.998Z,11.30
2022-09-28T11:46:40.570Z,11.40
2022-09-28T11:49:29.093Z,11.40
2022-09-28T11:51:59.218Z,11.50
2022-09-28T11:54:36.224Z,11.50
2022-09-28T11:57:05.133Z,11.60
2022-09-28T11:59:37.706Z,11.70
2022-09-28T12:02:18.904Z,11.70
2022-09-28T12:04:52.210Z,11.70
2022-09-28T12:07:31.360Z,11.70
2022-09-28T12:10:21.910Z,11.50
2022-09-28T12:12:58.725Z,11.50
2022-09-28T12:15:47.186Z,11.50
2022-09-28T12:21:53.068Z,11.60
2022-09-28T12:24:27.262Z,11.50
2022-09-28T12:27:04.793Z,11.60
2022-09-28T12:30:02.180Z,11.50
2022-09-28T12:32:41.834Z,11.50
2022-09-28T12:35:23.928Z,11.40
2022-09-28T12:38:15.668Z,11.50
2022-09-28T12:41:19.807Z,11.50
2022-09-28T12:43:58.500Z,11.30
2022-09-28T12:46:45.969Z,11.30
2022-09-28T12:52:52.086Z,11.10
2022-09-28T12:55:56.214Z,11.10
2022-09-28T12:59:13.022Z,11.00
2022-09-28T13:01:48.538Z,10.90
2022-09-28T13:04:27.270Z,10.90
2022-09-28T13:07:09.062Z,10.80
2022-09-28T13:10:17.154Z,10.80
2022-09-28T13:13:04.042Z,10.90
2022-09-28T13:15:56.845Z,10.90
2022-09-28T13:18:53.379Z,11.00
2022-09-28T13:21:40.862Z,11.10
2022-09-28T13:24:31.121Z,11.20
2022-09-28T13:27:05.222Z,11.20
2022-09-28T13:29:34.564Z,11.20
2022-09-28T13:32:03.231Z,11.20
2022-09-28T13:34:33.400Z,11.20
2022-09-28T13:37:19.794Z,11.20
2022-09-28T13:39:53.121Z,11.30
2022-09-28T13:42:29.288Z,11.20
2022-09-28T13:45:04.489Z,11.20
2022-09-28T13:47:52.424Z,11.10
2022-09-28T13:50:19.031Z,11.10
2022-09-28T13:52:49.425Z,10.90
2022-09-28T13:55:32.802Z,10.90
2022-09-28T13:58:14.186Z,11.00
2022-09-28T14:00:51.562Z,10.90
2022-09-28T14:03:41.038Z,10.90
2022-09-28T14:06:22.749Z,11.00
2022-09-28T14:08:52.422Z,10.90
2022-09-28T14:11:24.962Z,11.00
2022-09-28T14:14:11.810Z,10.90
2022-09-28T14:16:40.286Z,11.00
2022-09-28T14:19:13.255Z,11.00
2022-09-28T14:21:45.702Z,10.90
2022-09-28T14:24:30.888Z,10.90
2022-09-28T14:27:08.593Z,10.90
2022-09-28T14:29:38.353Z,10.90
2022-09-28T14:32:06.061Z,10.90
2022-09-28T14:34:45.260Z,10.90
2022-09-28T14:37:56.098Z,10.90
2022-09-28T14:40:49.928Z,10.90
2022-09-28T14:43:34.857Z,10.90
2022-09-28T14:46:23.155Z,10.90
2022-09-28T14:49:03.490Z,10.80
2022-09-28T14:51:30.196Z,10.80
2022-09-28T14:54:02.565Z,10.80
2022-09-28T14:56:38.129Z,10.80
2022-09-28T14:59:07.174Z,10.70
2022-09-28T15:01:36.051Z,10.80
2022-09-28T15:04:08.672Z,10.90
2022-09-28T15:06:49.420Z,10.90
2022-09-28T15:09:35.898Z,10.90
2022-09-28T15:12:18.055Z,11.00
2022-09-28T15:15:06.412Z,11.00
2022-09-28T15:17:39.510Z,11.00
2022-09-28T15:20:21.253Z,11.00
2022-09-28T15:22:49.637Z,10.90
2022-09-28T15:25:21.584Z,10.90
2022-09-28T15:27:54.239Z,10.80
2022-09-28T15:30:23.272Z,10.80
2022-09-28T15:32:50.984Z,10.90
2022-09-28T15:35:22.656Z,10.80
2022-09-28T15:37:53.221Z,11.00
2022-09-28T15:40:33.389Z,10.80
2022-09-28T15:43:00.465Z,10.80
2022-09-28T15:45:38.428Z,10.70
2022-09-28T15:48:40.706Z,10.70
2022-09-28T15:51:12.014Z,10.60
2022-09-28T15:54:09.287Z,10.60
2022-09-28T15:56:50.881Z,10.60
2022-09-28T15:59:28.058Z,10.60
2022-09-28T16:02:15.707Z,10.50
2022-09-28T16:04:55.158Z,10.50
2022-09-28T16:07:29.002Z,10.60
2022-09-28T16:10:12.298Z,10.60
2022-09-28T16:13:11.956Z,10.60
2022-09-28T16:15:39.311Z,10.60
2022-09-28T16:18:20.633Z,10.60
2022-09-28T16:20:52.488Z,10.60
2022-09-28T16:23:24.151Z,10.60
2022-09-28T16:26:03.852Z,10.70
2022-09-28T16:28:36.057Z,10.60
2022-09-28T16:31:27.888Z,10.60
2022-09-28T16:33:56.723Z,10.40
2022-09-28T16:36:27.371Z,10.30
2022-09-28T16:38:54.965Z,10.20
2022-09-28T16:41:24.978Z,10.10
2022-09-28T16:43:56.374Z,10.00
2022-09-28T16:46:29.788Z,10.00
2022-09-28T16:48:56.672Z,10.00
2022-09-28T16:51:23.732Z,9.90
2022-09-28T16:54:09.162Z,10.00
2022-09-28T16:56:36.798Z,9.90
2022-09-28T16:59:04.371Z,9.90
2022-09-28T17:01:31.451Z,9.80
2022-09-28T17:03:58.241Z,9.90
2022-09-28T17:06:25.446Z,9.80
2022-09-28T17:08:54.226Z,9.90
2022-09-28T17:11:24.479Z,9.90
2022-09-28T17:13:52.131Z,9.90
2022-09-28T17:16:37.139Z,9.90
2022-09-28T17:19:19.514Z,9.90
2022-09-28T17:21:47.253Z,9.90
2022-09-28T17:24:13.921Z,9.90
2022-09-28T17:26:42.276Z,9.90
2022-09-28T17:29:14.397Z,9.90
2022-09-28T17:31:43.068Z,9.90
2022-09-28T17:34:11.447Z,9.80
2022-09-28T17:36:38.458Z,9.80
2022-09-28T17:39:06.642Z,9.80
2022-09-28T17:41:34.231Z,9.70
2022-09-28T17:44:02.946Z,9.70
2022-09-28T17:46:34.880Z,9.70
2022-09-28T17:49:03.425Z,9.70
2022-09-28T17:51:33.585Z,9.70
2022-09-28T17:54:01.136Z,9.70
2022-09-28T17:56:32.106Z,9.60
2022-09-28T17:59:01.580Z,9.60
2022-09-28T18:01:33.856Z,9.60
2022-09-28T18:04:05.647Z,9.60
2022-09-28T18:06:33.750Z,9.60
2022-09-28T18:09:02.831Z,9.60
2022-09-28T18:11:30.417Z,9.60
2022-09-28T18:13:57.183Z,9.60
2022-09-28T18:16:24.234Z,9.60
2022-09-28T18:18:50.970Z,9.60
2022-09-28T18:21:17.802Z,9.60
2022-09-28T18:23:44.473Z,9.50
2022-09-28T18:26:15.178Z,9.60
2022-09-28T18:28:43.033Z,9.50
2022-09-28T18:31:12.278Z,9.40
2022-09-28T18:33:39.593Z,9.40
2022-09-28T18:36:07.786Z,9.40
2022-09-28T18:38:38.338Z,9.30
2022-09-28T18:41:15.480Z,9.30
2022-09-28T18:43:43.382Z,9.40
2022-09-28T18:46:11.398Z,9.40
2022-09-28T18:48:38.475Z,9.40
2022-09-28T18:51:09.196Z,9.40
2022-09-28T18:53:35.974Z,9.50
2022-09-28T18:56:08.064Z,9.40
2022-09-28T18:58:36.615Z,9.40
2022-09-28T19:04:06.149Z,9.30
2022-09-28T19:06:34.327Z,9.30
2022-09-28T19:09:01.486Z,9.40
2022-09-28T19:11:28.639Z,9.40
2022-09-28T19:13:56.556Z,9.40
2022-09-28T19:16:28.669Z,9.40
2022-09-28T19:18:58.918Z,9.40
2022-09-28T19:21:25.588Z,9.40
2022-09-28T19:23:55.153Z,9.30
2022-09-28T19:26:25.413Z,9.20
2022-09-28T19:28:52.196Z,9.20
2022-09-28T19:31:19.540Z,9.20
2022-09-28T19:33:46.714Z,9.10
2022-09-28T19:36:18.199Z,9.20
2022-09-28T19:38:45.576Z,9.20
2022-09-28T19:41:39.510Z,9.20
2022-09-28T19:44:27.133Z,9.20
2022-09-28T19:46:55.166Z,9.10
2022-09-28T19:49:22.825Z,9.10
2022-09-28T19:52:11.520Z,9.10
2022-09-28T19:54:38.751Z,9.10
2022-09-28T19:57:07.740Z,9.10
2022-09-28T19:59:36.395Z,9.10
2022-09-28T20:02:03.538Z,9.20
2022-09-28T20:04:30.393Z,9.20
2022-09-28T20:06:57.080Z,9.20
2022-09-28T20:09:23.810Z,9.20
2022-09-28T20:11:51.799Z,9.20
2022-09-28T20:14:18.705Z,9.30
2022-09-28T20:16:48.333Z,9.30
2022-09-28T20:19:15.135Z,9.30
2022-09-28T20:21:41.876Z,9.30
2022-09-28T20:24:11.433Z,9.30
2022-09-28T20:26:38.159Z,9.30
2022-09-28T20:29:06.673Z,9.30
2022-09-28T20:31:36.293Z,9.30
2022-09-28T20:34:04.238Z,9.40
2022-09-28T20:36:33.948Z,9.40
2022-09-28T20:39:04.313Z,9.40
2022-09-28T20:41:36.801Z,9.40
2022-09-28T20:44:06.136Z,9.50
2022-09-28T20:46:34.812Z,9.50
2022-09-28T20:49:01.838Z,9.50
2022-09-28T20:51:28.661Z,9.50
2022-09-28T20:53:57.275Z,9.50
2022-09-28T20:56:37.581Z,9.50
2022-09-28T20:59:10.316Z,9.50
2022-09-28T21:01:37.742Z,9.50
2022-09-28T21:04:06.638Z,9.50
2022-09-28T21:06:35.951Z,9.50
2022-09-28T21:09:03.689Z,9.50
2022-09-28T21:11:30.885Z,9.50
2022-09-28T21:13:59.694Z,9.50
2022-09-28T21:16:28.321Z,9.40
2022-09-28T21:18:55.155Z,9.40
2022-09-28T21:21:23.277Z,9.50
2022-09-28T21:23:57.018Z,9.50
2022-09-28T21:26:26.298Z,9.50
2022-09-28T21:29:01.044Z,9.50
2022-09-28T21:31:30.773Z,9.50
2022-09-28T21:33:57.835Z,9.50
2022-09-28T21:36:25.513Z,9.50
2022-09-28T21:38:53.441Z,9.50
2022-09-28T21:41:20.140Z,9.50
2022-09-28T21:43:46.782Z,9.50
2022-09-28T21:46:13.527Z,9.50
2022-09-28T21:48:40.284Z,9.50
2022-09-28T21:51:09.160Z,9.40
2022-09-28T21:53:37.594Z,9.50
2022-09-28T21:56:07.245Z,9.50
2022-09-28T21:58:35.385Z,9.50
2022-09-28T22:01:13.107Z,9.50
2022-09-28T22:03:40.225Z,9.60
2022-09-28T22:06:07.998Z,9.60
2022-09-28T22:08:35.786Z,9.60
2022-09-28T22:11:14.093Z,9.60
2022-09-28T22:13:46.660Z,9.60
2022-09-28T22:16:15.015Z,9.70
2022-09-28T22:18:41.924Z,9.70
2022-09-28T22:21:12.353Z,9.70
2022-09-28T22:23:39.831Z,9.80
2022-09-28T22:26:19.981Z,9.70
2022-09-28T22:28:52.600Z,9.70
2022-09-28T22:31:22.805Z,9.80
2022-09-28T22:33:50.008Z,9.80
2022-09-28T22:36:17.066Z,9.80
2022-09-28T22:38:45.009Z,9.70
2022-09-28T22:41:12.750Z,9.70
2022-09-28T22:43:39.418Z,9.70
2022-09-28T22:46:11.122Z,9.60
2022-09-28T22:48:37.857Z,9.60
2022-09-28T22:51:06.354Z,9.60
2022-09-28T22:53:34.394Z,9.60
2022-09-28T22:56:04.022Z,9.60
2022-09-28T22:58:31.238Z,9.60
